createdAt,value
2018-07-17T00:00:27.102Z,73.30
2018-07-17T00:02:55.635Z,73.10
2018-07-17T00:05:24.842Z,73.30
2018-07-17T00:07:53.329Z,73.90
2018-07-17T00:10:21.843Z,74.00
2018-07-17T00:12:50.395Z,74.30
2018-07-17T00:15:18.809Z,74.70
2018-07-17T00:17:47.396Z,75.20
2018-07-17T00:20:15.853Z,75.70
2018-07-17T00:22:44.973Z,76.00
2018-07-17T00:25:13.513Z,76.40
2018-07-17T00:27:42.035Z,76.80
2018-07-17T00:30:10.525Z,77.30
2018-07-17T00:32:39.005Z,77.40
2018-07-17T00:37:35.682Z,78.40
2018-07-17T00:40:04.313Z,78.60
2018-07-17T00:42:32.945Z,78.90
2018-07-17T00:45:01.802Z,79.30
2018-07-17T00:49:58.495Z,80.40
2018-07-17T00:52:27.006Z,80.80
2018-07-17T00:54:55.561Z,81.00
2018-07-17T00:57:24.079Z,81.30
2018-07-17T00:59:52.741Z,81.90
2018-07-17T01:02:26.872Z,82.20
2018-07-17T01:05:00.624Z,82.50
2018-07-17T01:07:34.349Z,83.30
2018-07-17T01:10:08.503Z,82.90
2018-07-17T01:12:36.232Z,83.10
2018-07-17T01:15:07.759Z,83.40
2018-07-17T01:17:37.025Z,83.60
2018-07-17T01:20:05.515Z,84.20
2018-07-17T01:22:34.134Z,83.90
2018-07-17T01:25:02.631Z,84.30
2018-07-17T01:27:31.118Z,84.10
2018-07-17T01:29:59.732Z,84.40
2018-07-17T01:32:28.235Z,84.40
2018-07-17T01:34:56.788Z,84.50
2018-07-17T01:37:25.264Z,84.70
2018-07-17T01:39:53.811Z,84.70
2018-07-17T01:42:22.321Z,84.60
2018-07-17T01:44:51.045Z,84.50
2018-07-17T01:47:19.597Z,84.40
2018-07-17T01:49:48.087Z,84.70
2018-07-17T01:52:16.745Z,84.70
2018-07-17T01:54:45.346Z,84.90
2018-07-17T01:57:14.151Z,84.70
2018-07-17T01:59:42.679Z,84.80
2018-07-17T02:02:11.365Z,84.90
2018-07-17T02:04:39.882Z,84.90
2018-07-17T02:07:08.464Z,84.80
2018-07-17T02:09:36.948Z,84.80
2018-07-17T02:12:05.482Z,85.30
2018-07-17T02:14:34.006Z,85.10
2018-07-17T02:17:02.567Z,84.70
2018-07-17T02:19:31.054Z,84.70
2018-07-17T02:21:59.503Z,84.40
2018-07-17T02:24:29.177Z,84.30
2018-07-17T02:26:57.674Z,84.10
2018-07-17T02:29:26.224Z,84.40
2018-07-17T02:31:54.818Z,84.40
2018-07-17T02:34:23.498Z,84.40
2018-07-17T02:36:51.955Z,84.20
2018-07-17T02:39:20.522Z,84.50
2018-07-17T02:41:49.030Z,84.50
2018-07-17T02:44:17.497Z,85.30
2018-07-17T02:46:46.146Z,84.70
2018-07-17T02:49:14.693Z,84.90
2018-07-17T02:51:43.189Z,84.90
2018-07-17T02:54:11.915Z,85.10
2018-07-17T02:56:40.397Z,85.20
2018-07-17T02:59:08.826Z,85.30
2018-07-17T03:01:37.279Z,85.40
2018-07-17T03:06:33.908Z,85.50
2018-07-17T03:09:02.379Z,85.50
2018-07-17T03:11:31.011Z,85.50
2018-07-17T03:13:59.730Z,85.70
2018-07-17T03:16:28.209Z,85.80
2018-07-17T03:18:56.710Z,86.00
2018-07-17T03:21:25.253Z,86.10
2018-07-17T03:23:53.742Z,86.20
2018-07-17T03:26:22.174Z,86.20
2018-07-17T03:31:18.911Z,86.70
2018-07-17T03:33:47.561Z,86.60
2018-07-17T03:36:16.042Z,87.00
2018-07-17T03:38:45.394Z,87.20
2018-07-17T03:41:13.893Z,87.20
2018-07-17T03:43:42.401Z,87.30
2018-07-17T03:46:10.955Z,87.50
2018-07-17T03:48:39.652Z,87.60
2018-07-17T03:51:08.153Z,87.60
2018-07-17T03:53:36.643Z,87.80
2018-07-17T03:56:05.159Z,87.80
2018-07-17T03:58:33.605Z,88.00
2018-07-17T04:01:02.292Z,88.10
2018-07-17T04:03:30.917Z,88.20
2018-07-17T04:05:59.381Z,88.70
2018-07-17T04:08:27.864Z,88.50
2018-07-17T04:10:56.530Z,88.70
2018-07-17T04:13:25.072Z,88.80
2018-07-17T04:18:21.729Z,89.20
2018-07-17T04:20:50.372Z,89.30
2018-07-17T04:23:19.053Z,89.60
2018-07-17T04:25:47.679Z,89.90
2018-07-17T04:28:16.207Z,90.10
2018-07-17T04:30:44.805Z,90.10
2018-07-17T04:33:13.495Z,90.20
2018-07-17T04:35:42.997Z,90.30
2018-07-17T04:38:11.568Z,90.40
2018-07-17T04:40:40.140Z,90.50
2018-07-17T04:43:08.818Z,90.60
2018-07-17T04:45:37.326Z,90.80
2018-07-17T04:48:06.140Z,90.90
2018-07-17T04:50:34.703Z,91.00
2018-07-17T04:53:03.171Z,91.10
2018-07-17T04:55:31.685Z,91.30
2018-07-17T04:58:00.178Z,91.40
2018-07-17T05:00:28.617Z,91.80
2018-07-17T05:02:57.081Z,91.90
2018-07-17T05:07:53.790Z,92.20
2018-07-17T05:10:22.405Z,92.40
2018-07-17T05:12:51.030Z,92.60
2018-07-17T05:15:19.488Z,92.70
2018-07-17T05:17:48.871Z,92.80
2018-07-17T05:20:17.402Z,93.10
2018-07-17T05:22:45.873Z,93.30
2018-07-17T05:27:43.221Z,93.70
2018-07-17T05:30:11.766Z,94.00
2018-07-17T05:32:40.240Z,94.20
2018-07-17T05:35:08.767Z,94.40
2018-07-17T05:37:37.279Z,94.70
2018-07-17T05:40:06.037Z,95.00
2018-07-17T05:42:34.510Z,95.20
2018-07-17T05:45:02.993Z,95.40
2018-07-17T05:47:31.552Z,95.70
2018-07-17T05:50:00.020Z,96.10
2018-07-17T05:52:28.808Z,96.00
2018-07-17T05:54:57.549Z,96.50
2018-07-17T05:57:26.059Z,97.40
2018-07-17T05:59:54.548Z,97.10
2018-07-17T06:02:23.201Z,97.30
2018-07-17T06:04:51.709Z,97.00
2018-07-17T06:07:20.167Z,97.30
2018-07-17T06:09:48.706Z,97.60
2018-07-17T06:19:41.907Z,96.10
2018-07-17T06:24:38.642Z,96.30
2018-07-17T06:27:08.473Z,95.50
2018-07-17T06:29:37.046Z,95.60
2018-07-17T06:32:05.816Z,95.50
2018-07-17T06:37:02.648Z,93.80
2018-07-17T06:39:31.199Z,93.90
2018-07-17T06:41:59.720Z,93.50
2018-07-17T06:44:28.358Z,93.30
2018-07-17T06:46:57.078Z,93.00
2018-07-17T06:49:29.695Z,92.10
2018-07-17T06:54:26.627Z,91.00
2018-07-17T06:56:55.215Z,90.90
2018-07-17T06:59:23.821Z,90.70
2018-07-17T07:04:21.200Z,89.20
2018-07-17T07:06:49.673Z,87.30
2018-07-17T07:09:18.343Z,87.10
2018-07-17T07:11:46.893Z,84.40
2018-07-17T07:14:15.440Z,84.10
2018-07-17T07:16:43.959Z,83.80
2018-07-17T07:19:12.746Z,84.00
2018-07-17T07:21:41.250Z,83.90
2018-07-17T07:24:09.744Z,82.20
2018-07-17T07:29:06.562Z,80.70
2018-07-17T07:31:35.076Z,81.40
2018-07-17T07:34:03.593Z,81.10
2018-07-17T07:36:33.005Z,80.40
2018-07-17T07:41:30.063Z,78.60
2018-07-17T07:43:58.599Z,77.80
2018-07-17T07:46:27.330Z,78.00
2018-07-17T07:48:57.497Z,76.10
2018-07-17T07:51:26.389Z,74.30
2018-07-17T07:53:56.922Z,73.10
2018-07-17T07:56:26.332Z,73.40
2018-07-17T07:59:00.309Z,71.50
2018-07-17T08:01:36.900Z,70.20
2018-07-17T08:04:05.446Z,71.40
2018-07-17T08:06:34.072Z,68.70
2018-07-17T08:09:02.902Z,69.80
2018-07-17T08:11:31.389Z,67.80
2018-07-17T08:14:00.182Z,68.70
2018-07-17T08:16:29.113Z,69.70
2018-07-17T08:21:25.844Z,67.40
2018-07-17T08:23:54.334Z,67.20
2018-07-17T08:26:22.994Z,67.00
2018-07-17T08:28:51.478Z,66.40
2018-07-17T08:31:20.012Z,65.00
2018-07-17T08:33:48.995Z,66.00
2018-07-17T08:36:17.494Z,66.00
2018-07-17T08:38:45.996Z,64.80
2018-07-17T08:41:14.670Z,62.60
2018-07-17T08:43:43.242Z,63.00
2018-07-17T08:46:11.804Z,60.90
2018-07-17T08:48:40.357Z,61.10
2018-07-17T08:53:42.278Z,59.20
2018-07-17T08:56:10.957Z,59.30
2018-07-17T08:58:39.496Z,56.50
2018-07-17T09:01:08.497Z,56.30
2018-07-17T09:03:37.150Z,54.70
2018-07-17T09:06:05.919Z,56.20
2018-07-17T09:08:34.683Z,54.40
2018-07-17T09:11:03.320Z,51.50
2018-07-17T09:13:31.846Z,50.00
2018-07-17T09:16:00.569Z,52.60
2018-07-17T09:18:29.105Z,52.30
2018-07-17T09:20:57.733Z,50.00
2018-07-17T09:23:26.441Z,49.10
2018-07-17T09:25:55.096Z,49.40
2018-07-17T09:28:23.720Z,50.90
2018-07-17T09:30:57.636Z,50.10
2018-07-17T09:33:26.138Z,48.80
2018-07-17T09:35:55.679Z,49.60
2018-07-17T09:38:24.710Z,48.40
2018-07-17T09:40:53.211Z,48.10
2018-07-17T09:45:50.784Z,46.30
2018-07-17T09:48:19.322Z,46.70
2018-07-17T09:50:47.974Z,48.70
2018-07-17T09:53:16.438Z,46.50
2018-07-17T09:55:45.022Z,46.50
2018-07-17T09:58:13.638Z,45.80
2018-07-17T10:00:47.468Z,46.60
2018-07-17T10:03:16.609Z,45.90
2018-07-17T10:05:45.243Z,46.20
2018-07-17T10:08:13.850Z,46.10
2018-07-17T10:13:10.657Z,42.90
2018-07-17T10:15:40.757Z,46.20
2018-07-17T10:18:09.329Z,46.20
2018-07-17T10:20:37.802Z,47.30
2018-07-17T10:23:06.313Z,46.40
2018-07-17T10:25:35.861Z,45.70
2018-07-17T10:28:04.384Z,46.10
2018-07-17T10:30:33.178Z,45.10
2018-07-17T10:33:01.686Z,44.30
2018-07-17T10:35:30.260Z,44.30
2018-07-17T10:37:58.996Z,41.80
2018-07-17T10:40:27.699Z,44.00
2018-07-17T10:42:57.016Z,43.20
2018-07-17T10:45:26.239Z,44.70
2018-07-17T10:47:54.797Z,42.60
2018-07-17T10:50:23.429Z,44.00
2018-07-17T10:52:51.926Z,44.50
2018-07-17T10:55:20.435Z,44.30
2018-07-17T10:57:49.058Z,42.20
2018-07-17T11:00:17.643Z,43.20
2018-07-17T11:02:46.140Z,40.70
2018-07-17T11:05:14.700Z,40.90
2018-07-17T11:07:43.257Z,41.50
2018-07-17T11:10:11.791Z,40.60
2018-07-17T11:12:40.333Z,39.70
2018-07-17T11:15:08.811Z,39.10
2018-07-17T11:17:37.291Z,38.70
2018-07-17T11:20:05.791Z,37.10
2018-07-17T11:22:34.331Z,39.50
2018-07-17T11:25:02.830Z,39.10
2018-07-17T11:27:31.307Z,39.10
2018-07-17T11:29:59.818Z,38.50
2018-07-17T11:32:28.680Z,38.90
2018-07-17T11:34:57.133Z,40.00
2018-07-17T11:37:25.722Z,39.30
2018-07-17T11:39:54.195Z,39.10
2018-07-17T11:42:22.842Z,38.20
2018-07-17T11:44:51.410Z,37.60
2018-07-17T11:49:48.378Z,37.10
2018-07-17T11:52:16.973Z,36.00
2018-07-17T11:54:45.532Z,37.80
2018-07-17T11:57:14.090Z,36.40
2018-07-17T11:59:43.237Z,34.60
2018-07-17T12:02:11.818Z,35.10
2018-07-17T12:04:40.757Z,34.90
2018-07-17T12:07:09.337Z,32.70
2018-07-17T12:09:37.973Z,32.70
2018-07-17T12:12:06.857Z,32.80
2018-07-17T12:14:35.495Z,32.50
2018-07-17T12:17:03.971Z,32.60
2018-07-17T12:19:32.436Z,32.60
2018-07-17T12:22:00.897Z,32.70
2018-07-17T12:24:29.395Z,32.80
2018-07-17T12:26:57.847Z,32.90
2018-07-17T12:29:26.485Z,32.70
2018-07-17T12:31:55.061Z,32.60
2018-07-17T12:34:23.602Z,33.40
2018-07-17T12:36:52.147Z,33.40
2018-07-17T12:39:21.219Z,32.30
2018-07-17T12:41:49.673Z,31.60
2018-07-17T12:44:18.254Z,32.50
2018-07-17T12:46:46.700Z,32.00
2018-07-17T12:49:15.160Z,31.80
2018-07-17T12:54:11.834Z,32.50
2018-07-17T12:56:40.452Z,31.40
2018-07-17T12:59:08.960Z,31.10
2018-07-17T13:01:37.490Z,32.10
2018-07-17T13:04:06.095Z,31.30
2018-07-17T13:06:34.690Z,32.40
2018-07-17T13:09:03.255Z,31.70
2018-07-17T13:11:31.833Z,32.40
2018-07-17T13:14:00.322Z,33.10
2018-07-17T13:16:30.417Z,32.00
2018-07-17T13:19:00.305Z,32.00
2018-07-17T13:21:28.990Z,31.10
2018-07-17T13:23:57.731Z,33.00
2018-07-17T13:26:26.472Z,32.10
2018-07-17T13:28:55.207Z,34.40
2018-07-17T13:31:23.825Z,33.10
2018-07-17T13:33:52.572Z,33.40
2018-07-17T13:36:21.220Z,33.10
2018-07-17T13:38:49.833Z,33.80
2018-07-17T13:41:24.899Z,34.10
2018-07-17T13:43:53.605Z,33.00
2018-07-17T13:46:22.151Z,32.70
2018-07-17T13:51:19.179Z,33.60
2018-07-17T13:53:47.810Z,33.50
2018-07-17T13:56:17.109Z,33.50
2018-07-17T13:58:45.521Z,34.10
2018-07-17T14:01:14.270Z,33.10
2018-07-17T14:03:44.549Z,33.30
2018-07-17T14:06:13.172Z,32.70
2018-07-17T14:08:42.722Z,33.10
2018-07-17T14:11:11.911Z,34.40
2018-07-17T14:13:40.562Z,33.60
2018-07-17T14:16:09.078Z,35.20
2018-07-17T14:18:38.000Z,34.80
2018-07-17T14:21:07.703Z,34.80
2018-07-17T14:23:36.368Z,34.90
2018-07-17T14:26:05.248Z,34.70
2018-07-17T14:28:33.822Z,34.60
2018-07-17T14:31:02.568Z,35.00
2018-07-17T14:33:31.280Z,35.30
2018-07-17T14:38:28.860Z,34.70
2018-07-17T14:40:58.333Z,34.70
2018-07-17T14:43:27.410Z,34.70
2018-07-17T14:45:56.212Z,34.70
2018-07-17T14:48:25.058Z,34.90
2018-07-17T14:50:53.825Z,35.60
2018-07-17T14:53:22.820Z,35.30
2018-07-17T14:58:20.745Z,33.90
2018-07-17T15:00:49.653Z,35.10
2018-07-17T15:03:18.595Z,34.70
2018-07-17T15:05:47.285Z,36.70
2018-07-17T15:08:15.888Z,36.50
2018-07-17T15:10:44.448Z,38.00
2018-07-17T15:13:13.297Z,37.60
2018-07-17T15:18:10.649Z,37.30
2018-07-17T15:20:39.182Z,36.90
2018-07-17T15:23:07.773Z,39.50
2018-07-17T15:25:36.881Z,38.60
2018-07-17T15:28:05.559Z,38.10
2018-07-17T15:30:34.146Z,38.20
2018-07-17T15:33:02.858Z,38.70
2018-07-17T15:35:32.136Z,39.10
2018-07-17T15:38:00.817Z,39.70
2018-07-17T15:40:30.552Z,40.20
2018-07-17T15:42:59.170Z,40.40
2018-07-17T15:47:56.108Z,41.50
2018-07-17T15:50:24.917Z,42.40
2018-07-17T15:55:21.784Z,42.80
2018-07-17T15:57:50.322Z,43.20
2018-07-17T16:00:19.108Z,43.30
2018-07-17T16:02:47.759Z,43.90
2018-07-17T16:05:16.884Z,43.80
2018-07-17T16:07:45.493Z,44.20
2018-07-17T16:10:14.143Z,44.90
2018-07-17T16:12:42.881Z,44.50
2018-07-17T16:15:11.705Z,44.70
2018-07-17T16:17:40.414Z,45.30
2018-07-17T16:22:37.978Z,45.60
2018-07-17T16:25:07.228Z,45.80
2018-07-17T16:27:36.031Z,46.40
2018-07-17T16:30:06.300Z,46.90
2018-07-17T16:35:03.825Z,47.80
2018-07-17T16:37:33.712Z,48.20
2018-07-17T16:40:02.237Z,48.70
2018-07-17T16:42:31.409Z,49.20
2018-07-17T16:44:59.973Z,48.50
2018-07-17T16:47:28.909Z,49.30
2018-07-17T16:49:57.850Z,49.50
2018-07-17T16:54:54.676Z,49.70
2018-07-17T16:57:23.298Z,49.30
2018-07-17T16:59:51.946Z,49.60
2018-07-17T17:02:20.782Z,50.30
2018-07-17T17:04:49.480Z,50.10
2018-07-17T17:07:18.075Z,50.50
2018-07-17T17:09:46.626Z,50.80
2018-07-17T17:12:15.208Z,51.30
2018-07-17T17:14:43.818Z,51.90
2018-07-17T17:17:12.468Z,52.30
2018-07-17T17:19:41.124Z,52.70
2018-07-17T17:22:10.399Z,52.80
2018-07-17T17:24:39.210Z,53.20
2018-07-17T17:27:07.794Z,52.90
2018-07-17T17:29:36.319Z,52.60
2018-07-17T17:32:05.044Z,53.20
2018-07-17T17:34:33.695Z,53.30
2018-07-17T17:37:02.664Z,53.40
2018-07-17T17:39:35.634Z,53.40
2018-07-17T17:42:04.171Z,53.80
2018-07-17T17:44:32.991Z,54.10
2018-07-17T17:47:05.746Z,53.80
2018-07-17T17:49:35.062Z,54.20
2018-07-17T17:52:03.650Z,54.60
2018-07-17T17:54:32.236Z,55.20
2018-07-17T17:57:00.782Z,55.30
2018-07-17T17:59:29.539Z,55.40
2018-07-17T18:01:58.376Z,55.30
2018-07-17T18:04:27.034Z,55.50
2018-07-17T18:06:55.637Z,55.90
2018-07-17T18:09:24.440Z,56.30
2018-07-17T18:11:53.119Z,56.10
2018-07-17T18:14:22.277Z,56.30
2018-07-17T18:16:51.130Z,56.30
2018-07-17T18:19:19.696Z,56.70
2018-07-17T18:21:48.332Z,56.90
2018-07-17T18:24:16.951Z,57.60
2018-07-17T18:26:45.624Z,56.40
2018-07-17T18:29:14.221Z,56.70
2018-07-17T18:34:11.963Z,57.80
2018-07-17T18:36:40.500Z,58.10
2018-07-17T18:39:09.399Z,57.60
2018-07-17T18:41:38.096Z,57.80
2018-07-17T18:44:06.543Z,57.80
2018-07-17T18:46:35.082Z,57.90
2018-07-17T18:49:03.798Z,58.20
2018-07-17T18:51:32.496Z,58.50
2018-07-17T18:54:01.008Z,58.90
2018-07-17T18:56:29.591Z,59.60
2018-07-17T18:58:58.464Z,59.90
2018-07-17T19:01:27.043Z,60.70
2018-07-17T19:03:55.534Z,61.20
2018-07-17T19:06:24.203Z,61.70
2018-07-17T19:08:52.833Z,62.10
2018-07-17T19:11:21.450Z,62.60
2018-07-17T19:13:49.893Z,63.30
2018-07-17T19:16:18.495Z,63.60
2018-07-17T19:18:47.051Z,64.10
2018-07-17T19:21:15.596Z,64.40
2018-07-17T19:23:44.212Z,64.70
2018-07-17T19:26:12.714Z,65.30
2018-07-17T19:28:41.316Z,65.60
2018-07-17T19:31:09.860Z,66.20
2018-07-17T19:33:38.444Z,66.30
2018-07-17T19:36:07.912Z,66.90
2018-07-17T19:38:36.478Z,67.10
2018-07-17T19:41:05.163Z,67.30
2018-07-17T19:43:34.005Z,67.70
2018-07-17T19:46:02.591Z,68.10
2018-07-17T19:48:31.269Z,68.20
2018-07-17T19:50:59.899Z,68.50
2018-07-17T19:53:28.382Z,68.80
2018-07-17T19:55:56.967Z,69.30
2018-07-17T19:58:28.758Z,69.70
2018-07-17T20:00:57.303Z,69.80
2018-07-17T20:03:25.964Z,70.30
2018-07-17T20:05:56.277Z,70.50
2018-07-17T20:08:25.047Z,70.90
2018-07-17T20:10:53.630Z,71.20
2018-07-17T20:13:22.173Z,71.60
2018-07-17T20:15:50.715Z,71.60
2018-07-17T20:18:19.268Z,72.00
2018-07-17T20:20:47.837Z,72.60
2018-07-17T20:23:16.489Z,72.90
2018-07-17T20:25:45.046Z,73.30
2018-07-17T20:28:13.489Z,74.10
2018-07-17T20:30:42.029Z,73.70
2018-07-17T20:33:10.657Z,74.30
2018-07-17T20:35:39.573Z,74.80
2018-07-17T20:38:08.090Z,74.90
2018-07-17T20:40:36.669Z,75.30
2018-07-17T20:43:05.451Z,75.30
2018-07-17T20:45:33.937Z,75.60
2018-07-17T20:48:02.386Z,76.00
2018-07-17T20:50:31.471Z,76.50
2018-07-17T20:53:00.504Z,77.20
2018-07-17T20:55:28.969Z,76.90
2018-07-17T20:57:57.567Z,77.20
2018-07-17T21:00:26.494Z,77.70
2018-07-17T21:02:55.656Z,78.10
2018-07-17T21:05:24.131Z,78.20
2018-07-17T21:07:52.685Z,78.60
2018-07-17T21:10:21.524Z,79.00
2018-07-17T21:12:50.272Z,79.10
2018-07-17T21:15:18.861Z,79.40
2018-07-17T21:17:47.425Z,79.80
2018-07-17T21:20:16.082Z,80.10
2018-07-17T21:22:45.025Z,80.40
2018-07-17T21:27:42.091Z,81.30
2018-07-17T21:30:10.804Z,81.60
2018-07-17T21:32:39.365Z,82.20
2018-07-17T21:35:08.470Z,82.50
2018-07-17T21:37:37.507Z,82.90
2018-07-17T21:40:06.639Z,83.30
2018-07-17T21:42:35.258Z,84.00
2018-07-17T21:45:03.830Z,83.60
2018-07-17T21:47:32.351Z,84.10
2018-07-17T21:50:00.930Z,84.30
2018-07-17T21:52:29.565Z,84.50
2018-07-17T21:54:58.028Z,84.80
2018-07-17T21:57:26.641Z,85.20
2018-07-17T21:59:55.224Z,85.30
2018-07-17T22:02:23.732Z,85.80
2018-07-17T22:04:53.070Z,86.00
2018-07-17T22:07:21.620Z,86.10
2018-07-17T22:09:50.142Z,86.30
2018-07-17T22:12:18.762Z,86.80
2018-07-17T22:14:47.309Z,87.00
2018-07-17T22:17:15.786Z,87.30
2018-07-17T22:19:44.411Z,87.80
2018-07-17T22:22:12.980Z,88.20
2018-07-17T22:24:41.541Z,88.50
2018-07-17T22:27:10.042Z,88.80
2018-07-17T22:29:38.548Z,89.10
2018-07-17T22:32:07.449Z,89.40
2018-07-17T22:34:35.996Z,89.70
2018-07-17T22:37:04.562Z,90.00
2018-07-17T22:39:33.186Z,90.10
2018-07-17T22:42:01.646Z,90.30
2018-07-17T22:44:30.123Z,90.50
2018-07-17T22:46:58.734Z,90.80
2018-07-17T22:49:27.225Z,91.00
2018-07-17T22:51:55.984Z,91.10
2018-07-17T22:54:25.012Z,91.30
2018-07-17T22:56:53.668Z,91.50
2018-07-17T22:59:22.146Z,91.60
2018-07-17T23:01:51.208Z,91.80
2018-07-17T23:04:19.757Z,91.80
2018-07-17T23:09:17.078Z,92.10
2018-07-17T23:11:45.608Z,92.20
2018-07-17T23:14:14.262Z,92.30
2018-07-17T23:16:42.909Z,92.40
2018-07-17T23:19:11.577Z,92.50
2018-07-17T23:21:40.130Z,92.80
2018-07-17T23:24:08.662Z,93.00
2018-07-17T23:26:37.165Z,93.10
2018-07-17T23:29:05.742Z,93.20
2018-07-17T23:31:34.536Z,93.30
2018-07-17T23:34:03.040Z,93.40
2018-07-17T23:36:31.549Z,93.50
2018-07-17T23:39:00.072Z,93.70
2018-07-17T23:41:28.559Z,93.90
2018-07-17T23:43:57.148Z,94.10
2018-07-17T23:46:25.701Z,94.10
2018-07-17T23:48:54.187Z,94.20
2018-07-17T23:51:22.681Z,94.40
2018-07-17T23:53:51.140Z,94.60
2018-07-17T23:56:19.677Z,94.70
2018-07-17T23:58:48.221Z,94.60
